Time;durP1;ratioP1;P1;durP2;ratioP2;P2;SDS_P1;SDS_P2;PMS_P1;PMS_P2;Temp;Humidity;BMP_temperature;BMP_pressure;BME280_temperature;BME280_humidity;BME280_pressure;Samples;Min_cycle;Max_cycle;Signal;HPM_P1;HPM_P2
2022/06/12 00:00:54;;;;;;;9.17;4.90;;;;;;;19.96;70.84;100129.23;123513;1098;104265;-78
2022/06/12 00:03:27;;;;;;;8.80;5.07;;;;;;;19.95;71.15;100130.12;123528;1099;104264;-78
2022/06/12 00:06:00;;;;;;;7.65;5.05;;;;;;;19.92;71.40;100127.48;123537;1099;104265;-79
2022/06/12 00:08:34;;;;;;;10.60;4.90;;;;;;;19.89;70.90;100123.06;123584;1099;104322;-78
2022/06/12 00:11:08;;;;;;;10.65;5.45;;;;;;;19.87;71.80;100111.55;123543;1099;104239;-78
2022/06/12 00:13:42;;;;;;;9.20;4.62;;;;;;;19.86;72.20;100115.09;123580;1099;104354;-79
2022/06/12 00:16:17;;;;;;;10.33;5.07;;;;;;;19.85;72.46;100113.35;123521;1099;104264;-78
2022/06/12 00:18:49;;;;;;;10.83;4.97;;;;;;;19.83;71.47;100112.46;123558;1098;104297;-78
2022/06/12 00:21:21;;;;;;;9.20;5.20;;;;;;;19.83;72.42;100116.91;123599;1099;104519;-79
2022/06/12 00:23:55;;;;;;;11.73;5.10;;;;;;;19.82;72.23;100110.72;123573;1099;104433;-78
2022/06/12 00:26:30;;;;;;;8.50;5.40;;;;;;;19.81;72.15;100118.71;123674;1099;104267;-78
2022/06/12 00:29:04;;;;;;;11.65;4.90;;;;;;;19.80;72.25;100111.61;123743;1099;105358;-78
2022/06/12 00:31:38;;;;;;;7.70;4.75;;;;;;;19.80;71.69;100119.59;123944;1099;104338;-78
2022/06/12 00:34:11;;;;;;;9.88;5.05;;;;;;;19.79;71.95;100102.75;123631;1099;104265;-78
2022/06/12 00:36:43;;;;;;;9.37;4.90;;;;;;;19.81;71.80;100114.27;123568;1099;104255;-78
2022/06/12 00:39:15;;;;;;;7.93;4.87;;;;;;;19.81;72.15;100113.39;123614;1099;104366;-78
2022/06/12 00:41:48;;;;;;;11.13;5.90;;;;;;;19.80;72.44;100108.95;123464;1099;104213;-78
2022/06/12 00:44:24;;;;;;;8.43;5.17;;;;;;;19.79;72.49;100105.42;123589;1098;104233;-78
2022/06/12 00:46:57;;;;;;;14.23;5.43;;;;;;;19.78;72.44;100102.77;123759;1099;104322;-78
2022/06/12 00:49:37;;;;;;;10.10;5.60;;;;;;;19.78;72.73;100108.09;123723;1099;104344;-78
2022/06/12 00:52:13;;;;;;;9.93;5.67;;;;;;;19.77;72.21;100103.65;123748;1098;104287;-78
2022/06/12 00:54:48;;;;;;;9.55;5.80;;;;;;;19.75;73.00;100104.50;123582;1099;104294;-78
2022/06/12 00:57:22;;;;;;;11.43;5.80;;;;;;;19.73;73.20;100103.64;123544;1099;104283;-78
2022/06/12 00:59:59;;;;;;;12.63;5.97;;;;;;;19.70;72.31;100102.80;123880;1099;104239;-78
2022/06/12 01:02:33;;;;;;;10.70;5.50;;;;;;;19.67;72.84;100098.37;123727;1099;104416;-78
2022/06/12 01:08:02;;;;;;;10.13;5.50;;;;;;;19.62;73.52;100110.84;123635;1099;104297;-77
2022/06/12 01:10:36;;;;;;;13.80;6.00;;;;;;;19.62;73.52;100105.52;124198;1099;104730;-78
2022/06/12 01:13:11;;;;;;;14.30;6.62;;;;;;;19.60;73.82;100109.07;123729;1099;104313;-77
2022/06/12 01:15:47;;;;;;;12.83;6.10;;;;;;;19.60;73.66;100103.75;123642;1099;104520;-78
2022/06/12 01:18:23;;;;;;;10.63;6.10;;;;;;;19.57;73.24;100097.56;123676;1099;104255;-77
2022/06/12 01:21:05;;;;;;;12.60;6.30;;;;;;;19.59;73.40;100094.89;123759;1099;104383;-77
2022/06/12 01:23:58;;;;;;;9.63;6.10;;;;;;;19.57;74.18;100094.00;123668;1099;104373;-78
2022/06/12 01:27:02;;;;;;;12.15;6.03;;;;;;;19.56;73.35;100079.82;123624;1099;120021;-78
2022/06/12 01:29:36;;;;;;;11.27;5.80;;;;;;;19.56;74.11;100086.93;123613;1099;104389;-78
2022/06/12 01:32:14;;;;;;;13.30;6.30;;;;;;;19.58;74.16;100082.47;123545;1099;104242;-78
2022/06/12 01:34:53;;;;;;;12.90;6.07;;;;;;;19.57;74.39;100084.26;123738;1099;104322;-78
2022/06/12 01:37:39;;;;;;;11.33;6.10;;;;;;;19.57;74.29;100081.59;123563;1099;104332;-78
2022/06/12 01:40:21;;;;;;;11.07;6.13;;;;;;;19.57;73.96;100081.59;123549;1099;104301;-78
2022/06/12 01:43:00;;;;;;;11.20;6.43;;;;;;;19.59;74.20;100078.92;123479;1099;104392;-78
2022/06/12 01:45:41;;;;;;;10.77;6.23;;;;;;;19.61;73.96;100077.13;123615;1099;104268;-78
2022/06/12 01:48:25;;;;;;;12.77;6.20;;;;;;;19.61;73.76;100071.80;123587;1099;104348;-78
2022/06/12 01:51:07;;;;;;;11.03;6.40;;;;;;;19.58;73.89;100059.39;123531;1098;104345;-78
2022/06/12 01:53:49;;;;;;;12.60;6.07;;;;;;;19.59;74.28;100057.63;123577;1099;104333;-78
2022/06/12 01:56:27;;;;;;;16.77;6.53;;;;;;;19.58;74.33;100061.18;123451;1099;104364;-79
2022/06/12 01:59:07;;;;;;;11.80;6.57;;;;;;;19.56;73.88;100060.32;123722;1099;104409;-78
2022/06/12 02:01:48;;;;;;;12.80;6.43;;;;;;;19.54;73.90;100055.01;123831;1099;104294;-77
2022/06/12 02:04:23;;;;;;;13.73;6.70;;;;;;;19.54;74.09;100049.69;123636;1099;104220;-78
2022/06/12 02:07:00;;;;;;;11.80;6.73;;;;;;;19.53;74.55;100050.57;123487;1099;104221;-78
2022/06/12 02:09:37;;;;;;;12.87;6.83;;;;;;;19.53;74.40;100047.04;123524;1098;104473;-78
2022/06/12 02:15:07;;;;;;;10.80;6.60;;;;;;;19.49;74.65;100055.93;123549;1099;104265;-78
2022/06/12 02:17:43;;;;;;;13.85;6.85;;;;;;;19.49;74.64;100055.93;123748;1099;104357;-79
2022/06/12 02:20:18;;;;;;;13.73;6.70;;;;;;;19.48;74.69;100055.06;123838;1098;104344;-78
2022/06/12 02:22:52;;;;;;;14.60;6.80;;;;;;;19.47;74.20;100061.27;124110;1099;104307;-78
2022/06/12 02:25:28;;;;;;;12.10;7.17;;;;;;;19.46;74.17;100059.52;123574;1099;104235;-78
2022/06/12 02:28:05;;;;;;;12.50;7.10;;;;;;;19.45;74.70;100056.88;123632;1099;110242;-77
2022/06/12 02:30:41;;;;;;;14.60;6.83;;;;;;;19.45;75.02;100063.06;123335;1099;104265;-78
2022/06/12 02:33:16;;;;;;;14.33;7.53;;;;;;;19.39;74.40;100055.13;123591;1099;104293;-78
2022/06/12 02:35:51;;;;;;;14.10;7.20;;;;;;;19.43;74.93;100067.52;123495;1099;104383;-78
2022/06/12 02:38:28;;;;;;;14.60;6.83;;;;;;;19.45;74.72;100079.03;123597;1099;104265;-78
2022/06/12 02:41:05;;;;;;;15.07;7.67;;;;;;;19.45;74.44;100080.81;123492;1099;104271;-78
2022/06/12 02:43:41;;;;;;;13.50;7.10;;;;;;;19.45;74.46;100078.16;123540;1099;104316;-78
2022/06/12 02:46:16;;;;;;;13.65;6.90;;;;;;;19.46;75.20;100077.23;123793;1099;104342;-78
2022/06/12 02:48:48;;;;;;;13.40;6.87;;;;;;;19.44;74.99;100073.72;123564;1099;104380;-78
2022/06/12 02:51:33;;;;;;;16.97;7.33;;;;;;;19.44;74.45;100073.72;123548;1098;104245;-78
2022/06/12 02:54:17;;;;;;;13.73;6.60;;;;;;;19.44;75.26;100074.59;123555;1099;104261;-78
2022/06/12 02:57:00;;;;;;;14.30;6.85;;;;;;;19.46;74.79;100074.58;123541;1099;104335;-78
2022/06/12 02:59:47;;;;;;;11.97;6.87;;;;;;;19.47;75.11;100069.25;123802;1099;104245;-78
2022/06/12 03:02:26;;;;;;;14.17;7.17;;;;;;;19.49;75.26;100069.23;123493;1099;104303;-78
2022/06/12 03:05:06;;;;;;;11.33;6.93;;;;;;;19.51;75.21;100068.34;123553;1099;104367;-78
2022/06/12 03:07:39;;;;;;;13.07;6.60;;;;;;;19.54;75.18;100075.39;123515;1099;104322;-78
2022/06/12 03:10:16;;;;;;;16.30;6.95;;;;;;;19.55;74.94;100072.72;123629;1099;104344;-78
2022/06/12 03:12:50;;;;;;;11.03;6.30;;;;;;;19.60;74.29;100077.14;123376;1099;104172;-78
2022/06/12 03:15:30;;;;;;;;;;;;;;;19.60;74.60;100079.80;124440;1099;104252;-78
2022/06/12 03:18:07;;;;;;;13.97;7.20;;;;;;;19.62;75.23;100081.56;123997;1099;104249;-78
2022/06/12 03:20:45;;;;;;;13.07;6.80;;;;;;;19.65;74.74;100083.30;123764;1099;104383;-78
2022/06/12 03:23:30;;;;;;;13.70;6.40;;;;;;;19.67;74.67;100085.06;123988;1099;104377;-79
2022/06/12 03:26:05;;;;;;;13.47;6.70;;;;;;;19.70;74.11;100084.16;123553;1099;104316;-78
2022/06/12 03:28:42;;;;;;;14.37;6.80;;;;;;;19.72;74.57;100085.89;123359;1099;104361;-78
2022/06/12 03:31:20;;;;;;;11.60;6.47;;;;;;;19.77;74.68;100088.55;123370;1099;104672;-78
2022/06/12 03:34:01;;;;;;;13.23;6.60;;;;;;;19.81;74.53;100086.77;123583;1098;104217;-78
2022/06/12 03:36:37;;;;;;;13.50;6.90;;;;;;;19.86;74.28;100090.27;123939;1099;104364;-78
2022/06/12 03:39:17;;;;;;;12.30;6.50;;;;;;;19.87;74.94;100087.59;123652;1099;104264;-77
2022/06/12 03:41:56;;;;;;;12.67;6.50;;;;;;;19.90;74.04;100090.22;123795;1099;104440;-78
2022/06/12 03:44:36;;;;;;;11.90;6.40;;;;;;;19.97;73.79;100099.03;123663;1099;104219;-78
2022/06/12 03:47:15;;;;;;;13.73;7.03;;;;;;;20.01;73.79;100098.11;123612;1099;104274;-77
2022/06/12 03:49:53;;;;;;;15.60;7.10;;;;;;;20.07;74.05;100095.39;123546;1098;104264;-78
2022/06/12 03:52:30;;;;;;;13.00;6.47;;;;;;;20.13;73.35;100096.22;123674;1098;104692;-78
2022/06/12 03:55:07;;;;;;;14.60;6.67;;;;;;;20.18;73.49;100099.70;123789;1099;104456;-78
2022/06/12 03:57:53;;;;;;;11.15;6.25;;;;;;;20.24;73.06;100096.98;123924;1099;104245;-77
2022/06/12 04:00:31;;;;;;;12.20;5.83;;;;;;;20.32;74.20;100100.47;123936;1099;110576;-77
2022/06/12 04:03:08;;;;;;;11.33;5.80;;;;;;;20.40;72.81;100106.59;123940;1099;104348;-78
2022/06/12 04:05:43;;;;;;;13.17;6.70;;;;;;;20.46;73.10;100109.19;124013;1099;104528;-77
2022/06/12 04:08:19;;;;;;;12.00;6.60;;;;;;;20.53;73.06;100101.13;123876;1099;104343;-78
2022/06/12 04:10:52;;;;;;;15.53;6.47;;;;;;;20.59;72.56;100106.39;123775;1099;104248;-77
2022/06/12 04:13:25;;;;;;;16.67;6.13;;;;;;;20.65;73.28;100109.02;123839;1099;104264;-79
2022/06/12 04:16:04;;;;;;;13.07;6.03;;;;;;;20.69;72.99;100105.39;123804;1099;104762;-78
2022/06/12 04:18:36;;;;;;;12.43;5.73;;;;;;;20.75;72.97;100113.31;123568;1099;104325;-77
2022/06/12 04:21:15;;;;;;;13.87;6.43;;;;;;;20.80;71.86;100111.50;123483;1099;104510;-78
2022/06/12 04:23:50;;;;;;;12.87;5.93;;;;;;;20.87;72.39;100111.42;123747;1099;104255;-78
2022/06/12 04:26:28;;;;;;;11.85;6.80;;;;;;;20.91;71.21;100108.70;123990;1099;104315;-77
2022/06/12 04:29:04;;;;;;;13.67;6.27;;;;;;;20.99;71.60;100113.93;123756;1099;104245;-78
2022/06/12 04:31:37;;;;;;;14.00;6.30;;;;;;;21.05;71.35;100105.84;123811;1099;104353;-78
2022/06/12 04:34:16;;;;;;;12.50;6.05;;;;;;;21.13;71.37;100109.28;123704;1099;104348;-78
2022/06/12 04:36:49;;;;;;;11.80;6.00;;;;;;;21.20;70.79;100110.06;123696;1098;104335;-78
2022/06/12 04:39:24;;;;;;;13.13;5.97;;;;;;;21.28;70.92;100104.63;123740;1099;104249;-78
2022/06/12 04:41:57;;;;;;;12.50;6.07;;;;;;;21.35;70.17;100111.64;123535;1099;104265;-79
2022/06/12 04:44:29;;;;;;;14.57;6.70;;;;;;;21.40;70.16;100117.78;123768;1099;104312;-78
2022/06/12 04:47:03;;;;;;;11.67;6.03;;;;;;;21.46;69.63;100117.70;123639;1099;104219;-78
2022/06/12 04:49:37;;;;;;;10.10;5.57;;;;;;;21.53;70.17;100121.17;123642;1099;104264;-78
2022/06/12 04:52:08;;;;;;;;;;;;;;;21.61;69.74;100126.39;124155;1099;104386;-78
2022/06/12 04:54:41;;;;;;;11.40;5.93;;;;;;;21.67;69.65;100127.17;123702;1099;104297;-78
2022/06/12 04:57:16;;;;;;;11.93;6.08;;;;;;;21.73;68.91;100119.06;123698;1098;104347;-78
2022/06/12 04:59:48;;;;;;;14.23;6.20;;;;;;;21.81;68.91;100123.41;123744;1098;104389;-77
2022/06/12 05:02:20;;;;;;;14.53;6.40;;;;;;;21.88;68.85;100127.75;123691;1099;104386;-78
2022/06/12 05:04:51;;;;;;;11.77;6.17;;;;;;;21.98;68.82;100123.13;123650;1099;104399;-78
2022/06/12 05:07:23;;;;;;;12.30;5.90;;;;;;;22.08;68.07;100130.96;123597;1098;104232;-78
2022/06/12 05:09:55;;;;;;;13.03;6.23;;;;;;;22.18;67.81;100126.33;123409;1099;104351;-78
2022/06/12 05:12:26;;;;;;;15.20;6.07;;;;;;;22.29;67.29;100139.49;123508;1099;104491;-78
2022/06/12 05:14:58;;;;;;;12.97;6.30;;;;;;;22.35;66.35;100135.87;123667;1099;104658;-78
2022/06/12 05:17:29;;;;;;;13.70;5.60;;;;;;;22.40;66.76;100140.20;123569;1099;104380;-78
2022/06/12 05:20:02;;;;;;;13.53;6.30;;;;;;;22.47;66.79;100142.76;123637;1099;104351;-78
2022/06/12 05:22:33;;;;;;;13.83;5.90;;;;;;;22.55;65.87;100133.69;123581;1098;104358;-78
2022/06/12 05:25:05;;;;;;;15.40;6.10;;;;;;;22.66;66.52;100146.85;123699;1099;104265;-79
2022/06/12 05:27:37;;;;;;;14.30;5.87;;;;;;;22.76;66.19;100147.55;123728;1099;104267;-78
2022/06/12 05:30:15;;;;;;;13.47;5.80;;;;;;;22.86;64.74;100148.23;123994;1099;104277;-78
2022/06/12 05:32:48;;;;;;;14.77;5.80;;;;;;;22.98;64.08;100147.97;123718;1099;104245;-79
2022/06/12 05:35:21;;;;;;;11.35;5.85;;;;;;;23.09;64.03;100151.36;123624;1099;104240;-78
2022/06/12 05:37:54;;;;;;;14.40;6.05;;;;;;;23.18;63.84;100147.58;123573;1099;104261;-78
2022/06/12 05:40:29;;;;;;;14.27;5.90;;;;;;;23.26;62.86;100158.99;123710;1099;104347;-78
2022/06/12 05:43:01;;;;;;;12.47;5.53;;;;;;;23.38;63.15;100155.17;123664;1099;104265;-78
2022/06/12 05:45:34;;;;;;;13.00;5.53;;;;;;;23.51;62.83;100153.98;123628;1099;104194;-78
2022/06/12 05:48:09;;;;;;;9.50;5.60;;;;;;;23.65;61.97;100156.34;123617;1099;104405;-79
2022/06/12 05:50:52;;;;;;;11.20;5.40;;;;;;;23.80;61.51;100162.25;123644;1099;104328;-78
2022/06/12 05:53:27;;;;;;;12.25;5.87;;;;;;;23.93;60.89;100150.32;124107;1099;104220;-78
2022/06/12 05:56:00;;;;;;;13.13;5.63;;;;;;;24.10;61.21;100146.34;123752;1099;104332;-78
2022/06/12 05:58:32;;;;;;;9.53;5.30;;;;;;;24.20;59.55;100155.92;123651;1099;104264;-78
2022/06/12 06:01:04;;;;;;;12.87;5.67;;;;;;;24.27;59.03;100165.55;124106;1099;104261;-78
2022/06/12 06:03:36;;;;;;;14.13;5.57;;;;;;;24.32;58.62;100158.25;123619;1099;104239;-79
2022/06/12 06:06:11;;;;;;;10.87;5.57;;;;;;;24.41;58.50;100167.86;123955;1099;104290;-77
2022/06/12 06:08:43;;;;;;;14.00;5.73;;;;;;;24.47;58.28;100165.02;123736;1099;104293;-78
2022/06/12 06:11:15;;;;;;;11.37;5.40;;;;;;;24.57;57.53;100168.36;123723;1099;104287;-78
2022/06/12 06:13:47;;;;;;;12.10;5.40;;;;;;;24.64;57.46;100169.09;123695;1099;104332;-78
2022/06/12 06:16:21;;;;;;;12.33;5.80;;;;;;;24.72;57.13;100173.30;123598;1099;104486;-78
2022/06/12 06:18:54;;;;;;;11.13;4.97;;;;;;;24.80;57.14;100177.58;124116;1099;104353;-79
2022/06/12 06:21:28;;;;;;;11.53;5.60;;;;;;;24.88;57.18;100181.78;123780;1099;104379;-79
2022/06/12 06:24:04;;;;;;;12.47;5.25;;;;;;;24.95;57.36;100177.14;123914;1099;104164;-79
2022/06/12 06:26:36;;;;;;;12.25;5.55;;;;;;;24.99;56.60;100183.30;124301;1099;104383;-77
2022/06/12 06:29:08;;;;;;;10.70;5.50;;;;;;;25.03;56.67;100177.80;124035;1099;104188;-78
2022/06/12 06:31:40;;;;;;;9.67;5.07;;;;;;;25.10;56.97;100179.39;123492;1099;104317;-77
2022/06/12 06:34:11;;;;;;;15.97;5.33;;;;;;;25.08;55.78;100185.71;123692;1099;104274;-78
2022/06/12 06:36:43;;;;;;;12.83;5.40;;;;;;;25.07;56.11;100182.16;123746;1099;104258;-78
2022/06/12 06:39:17;;;;;;;11.70;5.35;;;;;;;25.12;56.02;100179.34;123790;1098;104277;-78
2022/06/12 06:41:53;;;;;;;10.60;5.07;;;;;;;25.18;55.71;100175.58;123685;1099;104338;-78
2022/06/12 06:47:14;;;;;;;12.87;5.63;;;;;;;25.29;54.79;100173.47;123405;1099;104344;-78
2022/06/12 06:49:46;;;;;;;11.73;4.73;;;;;;;25.40;54.98;100176.73;123636;1099;104262;-77
2022/06/12 06:52:19;;;;;;;11.27;5.07;;;;;;;25.40;54.33;100176.73;123605;1099;104309;-78
2022/06/12 06:54:51;;;;;;;10.87;5.10;;;;;;;25.43;54.96;100181.11;124268;1099;104451;-78
2022/06/12 06:57:23;;;;;;;9.83;5.20;;;;;;;25.41;54.21;100182.97;123890;1099;104831;-78
2022/06/12 06:59:54;;;;;;;9.30;5.10;;;;;;;25.39;54.56;100188.39;123681;1099;104216;-78
2022/06/12 07:02:27;;;;;;;13.50;5.47;;;;;;;25.35;54.05;100184.02;123659;1099;104232;-77
2022/06/12 07:04:59;;;;;;;9.10;5.37;;;;;;;25.36;54.48;100190.30;123886;1099;104265;-77
2022/06/12 07:07:34;;;;;;;10.85;5.00;;;;;;;25.36;53.82;100183.11;123975;1099;104415;-80
2022/06/12 07:10:10;;;;;;;9.80;5.37;;;;;;;25.34;53.29;100182.28;123872;1099;104233;-79
2022/06/12 07:12:42;;;;;;;10.27;5.37;;;;;;;25.32;53.87;100181.43;124068;1099;104283;-78
2022/06/12 07:15:15;;;;;;;10.70;5.50;;;;;;;25.26;53.49;100185.17;124061;1099;104210;-78
2022/06/12 07:17:47;;;;;;;14.40;5.43;;;;;;;25.27;53.28;100180.67;124068;1099;104344;-78
2022/06/12 07:20:23;;;;;;;12.53;5.40;;;;;;;25.27;52.68;100180.67;123668;1099;104251;-78
2022/06/12 07:22:55;;;;;;;11.30;5.30;;;;;;;25.36;53.24;100179.55;123624;1099;104370;-78
2022/06/12 07:25:28;;;;;;;10.50;5.40;;;;;;;25.46;53.15;100173.86;123698;1098;104610;-78
2022/06/12 07:27:58;;;;;;;;;;;;;;;25.55;52.22;100185.23;123903;1099;104261;-78
2022/06/12 07:30:33;;;;;;;11.83;5.30;;;;;;;25.63;53.17;100178.70;123814;1099;104255;-78
2022/06/12 07:33:05;;;;;;;11.80;5.57;;;;;;;25.75;53.25;100177.41;123896;1099;104360;-78
2022/06/12 07:35:39;;;;;;;10.90;5.70;;;;;;;25.87;53.46;100180.62;123686;1099;104300;-78
2022/06/12 07:38:11;;;;;;;13.33;5.43;;;;;;;25.90;53.47;100173.36;123741;1099;104249;-79
2022/06/12 07:40:47;;;;;;;11.10;5.60;;;;;;;25.96;52.80;100174.94;123830;1099;104355;-78
2022/06/12 07:43:23;;;;;;;12.10;5.50;;;;;;;25.99;52.84;100167.71;123748;1099;104267;-78
2022/06/12 07:45:56;;;;;;;11.87;5.90;;;;;;;26.07;52.77;100177.31;123602;1098;104319;-78
2022/06/12 07:48:31;;;;;;;12.70;5.93;;;;;;;26.12;52.83;100169.98;123867;1099;104262;-78
2022/06/12 07:51:07;;;;;;;15.20;5.70;;;;;;;26.12;52.74;100172.68;123980;1098;104344;-79
2022/06/12 07:53:42;;;;;;;14.07;6.20;;;;;;;26.14;52.83;100166.30;123587;1099;104239;-78
2022/06/12 07:56:16;;;;;;;12.57;5.43;;;;;;;26.12;52.27;100165.48;123971;1099;104219;-79
2022/06/12 07:58:47;;;;;;;;;;;;;;;26.09;51.95;100170.96;123872;1099;104341;-78
2022/06/12 08:01:21;;;;;;;16.70;6.10;;;;;;;26.09;52.69;100176.34;123907;1099;104239;-77
2022/06/12 08:03:52;;;;;;;12.00;6.03;;;;;;;26.11;52.93;100174.47;123671;1099;104316;-78
2022/06/12 08:06:25;;;;;;;15.73;6.43;;;;;;;26.16;52.51;100177.00;123598;1099;104691;-78
2022/06/12 08:08:57;;;;;;;11.43;5.80;;;;;;;26.27;52.53;100177.53;123507;1099;104388;-79
2022/06/12 08:11:30;;;;;;;14.43;6.23;;;;;;;26.39;52.32;100170.83;123868;1099;104725;-78
2022/06/12 08:14:02;;;;;;;12.67;5.73;;;;;;;26.52;52.63;100174.86;123567;1099;104338;-78
2022/06/12 08:16:34;;;;;;;12.67;6.03;;;;;;;26.62;52.76;100182.60;123528;1099;104350;-77
2022/06/12 08:20:24;;;;;;;12.97;5.70;;;;;;;26.69;52.60;100182.36;123522;1099;104303;-78
2022/06/12 08:22:00;;;;;;;10.57;5.50;;;;;;;26.80;52.09;100181.97;123472;1099;104370;-78
2022/06/12 08:24:42;;;;;;;10.87;5.33;;;;;;;26.95;52.26;100185.89;123770;1099;105529;-78
2022/06/12 08:27:18;;;;;;;13.53;5.30;;;;;;;27.06;51.66;100182.80;123680;1098;104316;-78
2022/06/12 08:29:56;;;;;;;17.00;5.70;;;;;;;27.20;51.77;100182.28;123812;1098;104720;-77
2022/06/12 08:32:30;;;;;;;9.60;5.30;;;;;;;27.34;51.46;100184.48;124207;1099;104248;-77
2022/06/12 08:35:06;;;;;;;11.13;5.70;;;;;;;27.39;50.44;100179.77;123695;1099;104327;-77
2022/06/12 08:37:41;;;;;;;13.73;5.83;;;;;;;27.54;50.93;100175.61;123671;1099;104318;-78
2022/06/12 08:40:22;;;;;;;13.90;5.93;;;;;;;27.67;50.52;100176.86;123673;1099;104357;-78
2022/06/12 08:43:03;;;;;;;16.77;5.80;;;;;;;27.83;49.52;100178.92;123686;1099;104376;-78
2022/06/12 08:45:42;;;;;;;14.77;5.43;;;;;;;27.98;49.62;100171.11;124100;1099;104246;-78
2022/06/12 08:48:22;;;;;;;10.47;5.63;;;;;;;28.12;50.21;100173.23;123636;1099;104293;-78
2022/06/12 08:50:59;;;;;;;13.83;6.00;;;;;;;28.25;49.44;100179.00;123675;1097;104294;-78
2022/06/12 08:53:39;;;;;;;12.40;5.77;;;;;;;28.35;49.54;100178.61;123910;1099;104251;-78
2022/06/12 08:56:15;;;;;;;10.63;6.03;;;;;;;28.44;49.36;100178.20;123556;1099;110487;-77
2022/06/12 08:58:51;;;;;;;13.87;6.07;;;;;;;28.52;49.13;100178.73;123598;1098;104287;-78
2022/06/12 09:01:22;;;;;;;13.07;6.17;;;;;;;28.53;48.80;100175.08;123569;1098;104314;-77
2022/06/12 09:03:55;;;;;;;12.13;5.97;;;;;;;28.60;48.27;100167.64;123583;1098;104383;-78
2022/06/12 09:06:32;;;;;;;;;;;;;;;28.72;47.99;100175.19;123889;1099;104255;-77
2022/06/12 09:09:10;;;;;;;11.60;6.23;;;;;;;28.79;47.66;100164.98;123699;1099;104341;-77
2022/06/12 09:11:47;;;;;;;14.53;6.27;;;;;;;28.96;47.10;100175.02;123699;1099;104224;-77
2022/06/12 09:14:34;;;;;;;14.90;6.23;;;;;;;29.20;47.34;100164.91;124104;1099;104251;-78
2022/06/12 09:17:16;;;;;;;14.90;6.60;;;;;;;29.33;46.56;100149.88;123534;1099;106939;-77
2022/06/12 09:19:57;;;;;;;13.10;6.03;;;;;;;29.43;46.02;100146.73;123570;1099;104344;-77
2022/06/12 09:22:45;;;;;;;11.60;5.60;;;;;;;29.47;46.05;100142.95;123551;1099;104270;-77
2022/06/12 09:25:26;;;;;;;15.77;6.37;;;;;;;29.51;45.99;100144.53;123614;1099;104689;-77
2022/06/12 09:28:05;;;;;;;19.63;6.87;;;;;;;29.66;46.52;100151.03;123583;1099;104647;-78
2022/06/12 09:30:43;;;;;;;13.33;6.53;;;;;;;29.78;46.26;100147.72;123512;1099;104399;-78
2022/06/12 09:33:25;;;;;;;10.73;6.00;;;;;;;29.93;45.88;100141.58;123588;1099;104271;-77
2022/06/12 09:36:13;;;;;;;13.90;5.80;;;;;;;30.04;44.70;100143.70;123594;1099;104877;-78
2022/06/12 09:38:56;;;;;;;13.50;5.80;;;;;;;30.11;43.97;100137.03;123672;1099;104364;-78
2022/06/12 09:41:38;;;;;;;12.05;5.78;;;;;;;30.23;43.72;100131.94;123610;1099;104294;-78
2022/06/12 09:44:16;;;;;;;13.40;5.93;;;;;;;30.36;43.53;100127.64;123530;1099;104232;-77
2022/06/12 09:47:01;;;;;;;9.97;5.37;;;;;;;30.44;42.41;100125.44;123658;1099;104852;-77
2022/06/12 09:49:39;;;;;;;11.03;6.13;;;;;;;30.54;42.49;100123.13;123603;1099;104821;-77
2022/06/12 09:52:27;;;;;;;11.50;5.37;;;;;;;30.66;42.19;100116.16;123574;1099;104262;-79
2022/06/12 09:55:04;;;;;;;13.97;5.80;;;;;;;30.72;42.03;100115.83;123646;1099;104338;-77
2022/06/12 09:57:43;;;;;;;10.57;5.57;;;;;;;30.91;41.36;100114.83;123643;1099;104393;-77
2022/06/12 10:00:21;;;;;;;12.13;5.63;;;;;;;30.92;39.61;100120.16;123571;1099;104310;-78
2022/06/12 10:03:00;;;;;;;11.87;6.00;;;;;;;30.89;39.65;100114.91;123557;1099;104337;-78
2022/06/12 10:05:38;;;;;;;12.10;5.97;;;;;;;30.79;37.58;100103.72;123355;1099;105043;-77
2022/06/12 10:08:14;;;;;;;9.87;5.70;;;;;;;30.81;38.37;100099.08;123591;1098;117793;-77
2022/06/12 10:10:50;;;;;;;13.73;6.00;;;;;;;30.82;38.06;100097.23;123559;1099;104332;-77
2022/06/12 10:13:29;;;;;;;11.70;5.87;;;;;;;30.76;37.19;100094.87;123604;1099;104650;-79
2022/06/12 10:16:05;;;;;;;15.90;6.43;;;;;;;30.71;37.05;100078.87;123877;1099;104236;-79
2022/06/12 10:18:42;;;;;;;14.53;6.00;;;;;;;30.70;36.99;100085.27;123958;1099;104380;-78
2022/06/12 10:21:18;;;;;;;12.90;6.50;;;;;;;30.69;37.56;100074.52;124129;1099;104293;-78
2022/06/12 10:23:50;;;;;;;11.93;6.33;;;;;;;30.70;37.67;100074.44;123626;1099;104395;-77
2022/06/12 10:26:28;;;;;;;11.20;6.50;;;;;;;30.64;36.60;100063.94;123664;1098;104219;-78
2022/06/12 10:29:06;;;;;;;11.87;6.50;;;;;;;30.51;36.53;100068.27;123595;1099;104306;-77
2022/06/12 10:31:50;;;;;;;14.07;6.83;;;;;;;30.39;36.40;100057.14;123613;1098;104254;-77
2022/06/12 10:34:25;;;;;;;14.47;6.70;;;;;;;30.39;36.97;100062.56;123548;1099;104268;-77
2022/06/12 10:36:57;;;;;;;14.43;7.00;;;;;;;30.41;36.36;100048.95;123604;1099;104392;-77
2022/06/12 10:39:29;;;;;;;13.97;7.00;;;;;;;30.59;35.96;100047.95;123600;1099;104428;-77
2022/06/12 10:42:03;;;;;;;10.80;6.50;;;;;;;30.70;34.86;100043.75;123335;1099;104243;-78
2022/06/12 10:44:39;;;;;;;13.53;7.17;;;;;;;30.68;35.54;100049.25;123615;1098;104393;-78
2022/06/12 10:47:22;;;;;;;14.23;6.93;;;;;;;30.60;35.26;100033.43;123649;1099;104306;-77
2022/06/12 10:50:19;;;;;;;12.65;6.42;;;;;;;30.71;35.41;100032.84;123547;1099;104392;-77
2022/06/12 10:53:07;;;;;;;13.07;6.93;;;;;;;30.84;32.80;100019.51;123665;1098;104271;-79
2022/06/12 10:56:01;;;;;;;13.00;6.73;;;;;;;30.77;33.21;100024.38;124069;1099;104753;-77
2022/06/12 10:59:01;;;;;;;13.20;6.67;;;;;;;30.88;33.02;100014.78;124007;1098;104281;-78
2022/06/12 11:01:40;;;;;;;14.17;6.97;;;;;;;31.02;32.39;100011.32;123750;1099;104307;-78
2022/06/12 11:04:25;;;;;;;11.83;6.60;;;;;;;31.18;32.05;100002.22;123651;1098;104501;-77
2022/06/12 11:07:08;;;;;;;16.30;7.33;;;;;;;31.26;32.21;100003.59;123699;1099;104257;-77
2022/06/12 11:09:43;;;;;;;;;;;;;;;31.17;30.79;100002.31;123651;1099;109455;-78
2022/06/12 11:12:44;;;;;;;11.47;6.57;;;;;;;31.16;31.66;99992.42;123774;1098;104290;-78
2022/06/12 11:15:30;;;;;;;11.20;6.30;;;;;;;31.21;31.50;99994.87;123725;1098;104274;-77
2022/06/12 11:18:14;;;;;;;11.47;6.33;;;;;;;31.26;30.59;99998.17;123620;1099;104411;-78
2022/06/12 11:20:58;;;;;;;12.20;6.50;;;;;;;31.41;30.25;99999.98;123572;1099;104344;-78
2022/06/12 11:23:59;;;;;;;18.70;6.97;;;;;;;31.42;30.66;99999.03;123669;1099;104316;-78
2022/06/12 11:26:52;;;;;;;13.15;6.40;;;;;;;31.19;29.60;100008.50;123985;1099;104216;-79
2022/06/12 11:29:45;;;;;;;17.82;6.90;;;;;;;31.05;30.86;99984.92;123603;1099;104245;-78
2022/06/12 11:32:30;;;;;;;11.18;6.37;;;;;;;31.02;30.74;99986.94;123648;1098;104380;-78
2022/06/12 11:35:12;;;;;;;12.20;6.60;;;;;;;31.09;31.61;99994.63;123642;1099;104261;-78
2022/06/12 11:38:03;;;;;;;15.40;6.87;;;;;;;31.14;31.23;99995.22;123562;1099;104256;-78
2022/06/12 11:40:41;;;;;;;12.43;6.50;;;;;;;31.17;31.18;100005.88;123543;1099;104315;-78
2022/06/12 11:43:20;;;;;;;13.33;6.43;;;;;;;31.18;31.16;100004.93;123633;1099;104238;-78
2022/06/12 11:46:13;;;;;;;14.43;6.90;;;;;;;31.16;30.85;99997.84;123547;1099;104373;-78
2022/06/12 11:49:01;;;;;;;11.55;6.28;;;;;;;31.23;31.56;99985.70;123540;1099;104345;-77
2022/06/12 11:51:44;;;;;;;12.00;6.23;;;;;;;31.19;30.97;99990.39;123571;1099;104348;-78
2022/06/12 11:54:42;;;;;;;13.77;6.50;;;;;;;31.12;30.59;100002.58;123627;1099;104241;-77
2022/06/12 11:57:20;;;;;;;15.05;5.80;;;;;;;30.95;31.50;100006.22;123601;1099;104268;-79